Jenkintown, Pennsylvania
Current Conditions -  °F | °C
As of 8:54 PM on Saturday 25 Oct 2014 (Local Time) from KPNE Reporting Station
Scattered Clouds Scattered Clouds  
Wind Chill: 65°   Ceiling: Unl
Heat Index: 65°   Visibility: 10mi
Dew Point: 43°   Wind: 8mph
Humidity: 45%   Direction: 230°SW
Pressure: 29.68"   Gusts: NA
Location:  40.1°N, 75.13°W
Report Text: KPNE 260054Z 23007KT 10SM SCT065 18/06 A2968 RMK AO2 SLP050 T01830061
Loading
Personal Weather Stations






























Interactive Weather Map
Tropical Storm Tracking
New forecast layout! Learn more

10-Day Weather Forecast

Advertisements
Track Severe Weather on mobile